Ohop, Washington
Current Conditions -  °F | °C
As of 11:58 PM on Thursday 27 Nov 2014 (Local Time) from KTCM Reporting Station
Broken Clouds Broken Clouds  
Wind Chill: 55°   Ceiling: 7500
Heat Index: 55°   Visibility: 10mi
Dew Point: 51°   Wind: 20mph
Humidity: 85%   Direction: 190°S
Pressure: 29.7"   Gusts: 26mph
Location:  46.993°N, 122.097°W
Report Text: KTCM 280758Z AUTO 19017G23KT 10SM FEW033 BKN075 BKN170 13/10 A2970 RMK AO2 PK WND 19026/14 CIG 034 RWY34 SLP061 T01270103 401610104 $
Loading
Personal Weather Stations






























Interactive Weather Map New forecast layout! Learn more

10-Day Weather Forecast

Advertisements
Track Severe Weather on mobile